Saint Helena Island, South Carolina
Current Conditions -  °F | °C
As of 11:35 PM on Monday 22 Dec 2014 (Local Time) from KARW Reporting Station
Haze Haze  
Wind Chill: 44°   Ceiling: 200
Heat Index: 48°   Visibility: 1.2mi
Dew Point: 48°   Wind: 9mph
Humidity: 100%   Direction: 40°NE
Pressure: 29.97"   Gusts: NA
Location:  32.32°N, 80.48°W
Report Text: KARW 230435Z AUTO 04008KT 1 1/4SM BR OVC002 09/09 A2997 RMK AO2 LTG DSNT S
Loading
Personal Weather Stations






























Interactive Weather Map New forecast layout! Learn more

10-Day Weather Forecast

Advertisements
Track Severe Weather on mobile